Aviation Digital Data Service (ADDS)

Output produced by METARs form (0738 UTC 28 September 2022)
found at http://www.aviationweather.gov/metar/data/
 
VTBD 280730Z 31009KT 250V350 9999 FEW020 SCT035 31/23 Q1002 NOSIG
VTBD 280700Z 31011KT 9999 FEW020 SCT035 31/23 Q1002 NOSIG
VTBD 280630Z 29011KT 9999 FEW020 SCT035 31/23 Q1003 NOSIG
VTBD 280600Z 28010KT 240V330 9999 FEW020 SCT035 31/23 Q1003 NOSIG
VTBD 280530Z 30011KT 260V340 9999 FEW020 SCT035 31/23 Q1004 NOSIG
VTBD 280500Z 30010KT 270V330 9999 FEW020 SCT035 31/23 Q1004 NOSIG
VTBD 280430Z 29011KT 270V330 9999 FEW020 31/23 Q1005 NOSIG
VTBD 280400Z 30011KT 260V340 9999 FEW020 31/23 Q1005 NOSIG
VTBD 280330Z 31010KT 270V340 9999 FEW020 31/23 Q1006 NOSIG
VTBD 280300Z 30012KT 260V330 9999 FEW020 30/23 Q1006 NOSIG
VTBD 280230Z 29010KT 260V320 9999 FEW020 30/23 Q1005 NOSIG
VTBD 280200Z 29010KT 9999 FEW020 28/23 Q1005 NOSIG
VTBD 280130Z 29007KT 250V320 9999 FEW020 28/24 Q1005 NOSIG
VTBD 280100Z 27008KT 9999 FEW020 27/24 Q1005 NOSIG
VTBD 280030Z 26007KT 9999 FEW020 26/24 Q1004 NOSIG
VTBD 280000Z 28005KT 240V320 9999 FEW020 26/24 Q1004 NOSIG
VTBD 272330Z 27006KT 9999 FEW020 26/25 Q1004 NOSIG
VTBD 272300Z 27005KT 9999 FEW020 26/25 Q1004 NOSIG
VTBD 272230Z 27006KT 9999 FEW020 26/25 Q1004 NOSIG
VTBD 272200Z 26006KT 9999 FEW020 26/24 Q1004 NOSIG
VTBD 272130Z 26007KT 9999 FEW020 26/25 Q1004 NOSIG
VTBD 272100Z 25007KT 9999 FEW020 26/24 Q1004 NOSIG
VTBD 272030Z 26008KT 9999 FEW020 27/24 Q1004 NOSIG
VTBD 272000Z 27006KT 9999 FEW020 27/25 Q1004 NOSIG
VTBD 271930Z 26006KT 9999 FEW020 SCT030 27/24 Q1004 NOSIG
VTBD 271900Z 28005KT 9999 FEW020 SCT030 27/24 Q1005 NOSIG
VTBD 271830Z 27008KT 9999 FEW020 SCT030 27/24 Q1006 NOSIG
VTBD 271800Z 29006KT 260V320 9999 FEW020 SCT030 27/26 Q1006 NOSIG
VTBD 271730Z 27006KT 9999 FEW020 SCT030 27/25 Q1007 NOSIG
VTBD 271700Z 29007KT 9999 FEW020 SCT030 27/25 Q1007 NOSIG
VTBD 271630Z 27008KT 240V300 9999 FEW020 SCT030 27/25 Q1007 NOSIG
VTBD 271600Z 26007KT 9999 FEW020 SCT030 27/24 Q1007 NOSIG
VTBD 271530Z 27005KT 240V310 9999 FEW020 SCT030 27/24 Q1008 NOSIG
VTBD 271500Z 27006KT 9999 FEW020 27/24 Q1008 NOSIG
VTBD 271430Z 27005KT 230V300 9999 FEW020 27/24 Q1008 NOSIG
VTBD 271400Z 27004KT 250V310 9999 FEW020 27/24 Q1007 NOSIG
VTBD 271330Z 27004KT 220V290 9999 FEW020 27/23 Q1007 NOSIG
VTBD 271300Z 28004KT 240V310 9999 FEW020 27/23 Q1007 NOSIG
VTBD 271230Z 26005KT 9999 FEW020 SCT035 27/23 Q1006 NOSIG
VTBD 271200Z 26006KT 9999 FEW020 SCT035 27/24 Q1006 NOSIG
VTBD 271130Z 25008KT 9999 FEW020 SCT035 27/23 Q1006 NOSIG
VTBD 271100Z 27011KT 9999 FEW020CB SCT035 28/24 Q1005 NOSIG
VTBD 271030Z 28013KT 250V310 9999 FEW020CB SCT035 29/24 Q1005 NOSIG
VTBD 271000Z 29008KT 250V330 9999 FEW020CB SCT035 31/23 Q1004 NOSIG
VTBD 270930Z 30008KT 260V010 9999 FEW020CB SCT035 31/24 Q1004 NOSIG
VTBD 270900Z 31008KT 280V350 9999 FEW020CB SCT035 31/24 Q1004 NOSIG
VTBD 270830Z 27008KT 240V300 9999 FEW020 31/24 Q1004 NOSIG
VTBD 270800Z 28008KT 260V320 9999 FEW020 31/24 Q1004 NOSIG
VTBD 270730Z 26009KT 240V310 9999 FEW020 31/24 Q1005 NOSIG
VTBD 270700Z 26009KT 230V290 9999 FEW020 SCT030 31/25 Q1005 NOSIG
TAF VTBD 280500Z 2806/2912 30008KT 9999 FEW020 
     TEMPO 2808/2812 VRB15KT 3000 TSRA FEW018CB SCT030 BKN100 
     BECMG 2814/2816 24005KT -RA 
     BECMG 2822/2824 00000KT NSW 
     BECMG 2902/2904 23008KT